createdAt,value
2018-12-05T00:01:34.731Z,55.53
2018-12-05T00:04:01.515Z,53.43
2018-12-05T00:06:28.445Z,53.43
2018-12-05T00:08:55.226Z,61.43
2018-12-05T00:11:22.130Z,49.53
2018-12-05T00:13:49.007Z,45.80
2018-12-05T00:16:15.722Z,48.60
2018-12-05T00:18:42.941Z,51.07
2018-12-05T00:21:10.934Z,56.77
2018-12-05T00:23:37.678Z,44.90
2018-12-05T00:26:04.469Z,53.83
2018-12-05T00:28:31.180Z,52.00
2018-12-05T00:30:57.995Z,50.50
2018-12-05T00:33:24.747Z,52.53
2018-12-05T00:35:51.461Z,61.47
2018-12-05T00:38:18.171Z,59.60
2018-12-05T00:40:45.625Z,63.13
2018-12-05T00:43:12.330Z,53.07
2018-12-05T00:45:39.057Z,50.87
2018-12-05T00:48:05.832Z,55.13
2018-12-05T00:50:32.549Z,58.47
2018-12-05T00:52:59.283Z,41.60
2018-12-05T00:55:26.125Z,54.00
2018-12-05T00:57:52.842Z,54.80
2018-12-05T01:00:19.616Z,45.37
2018-12-05T01:02:46.440Z,46.90
2018-12-05T01:05:13.160Z,38.93
2018-12-05T01:07:39.857Z,33.83
2018-12-05T01:10:06.620Z,34.13
2018-12-05T01:12:33.345Z,31.70
2018-12-05T01:15:00.055Z,30.90
2018-12-05T01:17:26.825Z,24.67
2018-12-05T01:19:53.544Z,25.50
2018-12-05T01:22:20.363Z,30.97
2018-12-05T01:24:47.487Z,31.67
2018-12-05T01:27:14.206Z,29.80
2018-12-05T01:29:40.937Z,28.23
2018-12-05T01:32:07.721Z,30.93
2018-12-05T01:34:34.486Z,33.27
2018-12-05T01:37:01.223Z,28.80
2018-12-05T01:39:28.172Z,41.87
2018-12-05T01:41:54.887Z,40.73
2018-12-05T01:44:21.615Z,33.43
2018-12-05T01:46:48.873Z,36.27
2018-12-05T01:49:15.575Z,24.90
2018-12-05T01:51:42.291Z,25.50
2018-12-05T01:54:09.049Z,30.47
2018-12-05T01:56:35.873Z,25.07
2018-12-05T01:59:02.748Z,22.90
2018-12-05T02:01:29.559Z,24.10
2018-12-05T02:03:56.274Z,21.83
2018-12-05T02:06:22.987Z,22.03
2018-12-05T02:08:50.144Z,25.23
2018-12-05T02:11:16.860Z,26.93
2018-12-05T02:13:43.571Z,24.40
2018-12-05T02:16:10.353Z,25.90
2018-12-05T02:18:37.076Z,25.00
2018-12-05T02:21:03.788Z,34.20
2018-12-05T02:23:30.541Z,27.17
2018-12-05T02:25:57.380Z,26.83
2018-12-05T02:28:24.103Z,22.53
2018-12-05T02:30:50.857Z,25.77
2018-12-05T02:33:17.568Z,29.20
2018-12-05T02:35:44.270Z,27.97
2018-12-05T02:38:11.114Z,29.00
2018-12-05T02:40:37.819Z,30.67
2018-12-05T02:43:04.533Z,26.47
2018-12-05T02:45:31.290Z,26.90
2018-12-05T02:48:02.160Z,33.97
2018-12-05T02:53:03.349Z,24.23
2018-12-05T02:55:30.069Z,30.57
2018-12-05T02:57:56.913Z,23.03
2018-12-05T03:00:23.674Z,28.23
2018-12-05T03:02:50.388Z,27.60
2018-12-05T03:05:17.112Z,33.57
2018-12-05T03:07:43.875Z,33.90
2018-12-05T03:10:10.585Z,31.80
2018-12-05T03:12:37.433Z,34.80
2018-12-05T03:15:04.280Z,34.40
2018-12-05T03:17:31.009Z,40.97
2018-12-05T03:19:57.779Z,50.00
2018-12-05T03:22:24.547Z,48.67
2018-12-05T03:24:51.338Z,47.37
2018-12-05T03:27:18.093Z,62.37
2018-12-05T03:29:44.860Z,61.43
2018-12-05T03:32:11.672Z,79.33
2018-12-05T03:34:38.393Z,72.47
2018-12-05T03:37:05.156Z,67.43
2018-12-05T03:39:31.875Z,68.80
2018-12-05T03:41:58.837Z,54.27
2018-12-05T03:44:25.610Z,46.73
2018-12-05T03:46:52.343Z,52.97
2018-12-05T03:49:19.056Z,41.43
2018-12-05T03:51:45.799Z,40.17
2018-12-05T03:54:12.650Z,37.97
2018-12-05T03:56:39.361Z,48.13
2018-12-05T03:59:06.130Z,40.67
2018-12-05T04:01:32.847Z,35.63
2018-12-05T04:03:59.947Z,39.53
2018-12-05T04:06:26.769Z,37.17
2018-12-05T04:08:53.486Z,43.93
2018-12-05T04:11:20.211Z,41.53
2018-12-05T04:13:46.962Z,31.47
2018-12-05T04:16:13.819Z,42.27
2018-12-05T04:18:40.536Z,35.53
2018-12-05T04:21:07.295Z,34.23
2018-12-05T04:26:07.325Z,32.47
2018-12-05T04:28:34.057Z,36.10
2018-12-05T04:31:00.817Z,39.37
2018-12-05T04:33:27.887Z,29.77
2018-12-05T04:35:54.595Z,33.77
2018-12-05T04:38:21.332Z,36.83
2018-12-05T04:40:48.189Z,35.40
2018-12-05T04:43:15.028Z,34.20
2018-12-05T04:45:41.981Z,31.80
2018-12-05T04:48:08.726Z,36.93
2018-12-05T04:50:35.504Z,32.87
2018-12-05T04:53:02.223Z,32.50
2018-12-05T04:55:28.975Z,43.33
2018-12-05T04:57:55.779Z,34.83
2018-12-05T05:00:22.595Z,41.17
2018-12-05T05:02:49.364Z,38.60
2018-12-05T05:05:16.078Z,41.43
2018-12-05T05:07:42.880Z,37.30
2018-12-05T05:10:11.673Z,34.83
2018-12-05T05:12:38.378Z,43.33
2018-12-05T05:15:05.685Z,41.97
2018-12-05T05:17:32.435Z,38.20
2018-12-05T05:19:59.153Z,38.60
2018-12-05T05:22:25.862Z,37.33
2018-12-05T05:24:52.644Z,36.13
2018-12-05T05:27:19.365Z,36.73
2018-12-05T05:29:46.498Z,38.73
2018-12-05T05:32:13.285Z,34.50
2018-12-05T05:34:39.998Z,36.43
2018-12-05T05:37:07.159Z,39.70
2018-12-05T05:39:33.922Z,56.30
2018-12-05T05:42:00.660Z,52.80
2018-12-05T05:44:27.391Z,58.97
2018-12-05T05:46:54.383Z,71.80
2018-12-05T05:49:21.091Z,79.60
2018-12-05T05:51:48.025Z,85.60
2018-12-05T05:54:14.899Z,83.70
2018-12-05T05:56:41.615Z,87.50
2018-12-05T05:59:08.855Z,90.07
2018-12-05T06:01:35.636Z,79.17
2018-12-05T06:04:02.359Z,81.27
2018-12-05T06:06:29.058Z,81.00
2018-12-05T06:08:56.038Z,78.67
2018-12-05T06:11:22.759Z,83.57
2018-12-05T06:13:49.465Z,80.10
2018-12-05T06:16:16.918Z,77.47
2018-12-05T06:18:43.636Z,76.13
2018-12-05T06:21:10.720Z,73.07
2018-12-05T06:23:37.608Z,62.40
2018-12-05T06:26:04.494Z,67.17
2018-12-05T06:28:31.228Z,67.33
2018-12-05T06:30:58.009Z,66.57
2018-12-05T06:33:24.716Z,67.83
2018-12-05T06:35:51.662Z,67.80
2018-12-05T06:38:18.457Z,65.70
2018-12-05T06:40:45.180Z,70.23
2018-12-05T06:43:12.261Z,70.87
2018-12-05T06:45:39.058Z,61.67
2018-12-05T06:48:05.786Z,68.70
2018-12-05T06:50:32.498Z,67.30
2018-12-05T06:52:59.263Z,67.97
2018-12-05T06:55:25.978Z,55.77
2018-12-05T06:57:52.706Z,58.43
2018-12-05T07:00:19.679Z,63.30
2018-12-05T07:02:46.628Z,59.43
2018-12-05T07:05:13.605Z,50.57
2018-12-05T07:07:40.514Z,57.47
2018-12-05T07:10:07.356Z,58.40
2018-12-05T07:12:34.298Z,52.43
2018-12-05T07:15:01.071Z,61.13
2018-12-05T07:17:27.789Z,58.47
2018-12-05T07:19:54.511Z,49.97
2018-12-05T07:22:21.350Z,54.43
2018-12-05T07:24:48.062Z,52.70
2018-12-05T07:27:15.359Z,60.53
2018-12-05T07:29:42.145Z,60.27
2018-12-05T07:32:08.886Z,72.37
2018-12-05T07:34:35.588Z,70.70
2018-12-05T07:37:02.344Z,66.83
2018-12-05T07:39:29.044Z,64.53
2018-12-05T07:41:55.758Z,64.90
2018-12-05T07:44:22.519Z,62.70
2018-12-05T07:46:49.235Z,72.67
2018-12-05T07:49:16.564Z,69.77
2018-12-05T07:51:43.456Z,67.13
2018-12-05T07:54:10.159Z,60.60
2018-12-05T07:56:36.868Z,70.33
2018-12-05T07:59:03.662Z,69.20
2018-12-05T08:01:30.462Z,56.70
2018-12-05T08:03:57.230Z,64.00
2018-12-05T08:06:24.076Z,60.80
2018-12-05T08:08:50.790Z,53.80
2018-12-05T08:11:17.791Z,45.83
2018-12-05T08:13:44.552Z,42.87
2018-12-05T08:16:11.271Z,34.80
2018-12-05T08:18:37.984Z,42.17
2018-12-05T08:21:04.822Z,43.73
2018-12-05T08:23:31.739Z,48.93
2018-12-05T08:25:58.443Z,37.00
2018-12-05T08:28:25.205Z,39.50
2018-12-05T08:30:51.925Z,40.77
2018-12-05T08:33:19.006Z,47.77
2018-12-05T08:35:45.954Z,46.43
2018-12-05T08:38:12.669Z,49.13
2018-12-05T08:40:40.120Z,60.63
2018-12-05T08:43:06.888Z,55.73
2018-12-05T08:45:33.605Z,58.47
2018-12-05T08:48:00.331Z,41.40
2018-12-05T08:50:27.221Z,42.30
2018-12-05T08:52:54.057Z,62.60
2018-12-05T08:55:20.813Z,39.53
2018-12-05T08:57:47.585Z,44.03
2018-12-05T09:00:14.296Z,49.27
2018-12-05T09:02:41.005Z,52.97
2018-12-05T09:05:07.944Z,36.83
2018-12-05T09:07:34.668Z,38.77
2018-12-05T09:10:01.455Z,57.93
2018-12-05T09:12:28.285Z,56.40
2018-12-05T09:14:55.025Z,42.57
2018-12-05T09:17:21.748Z,26.17
2018-12-05T09:19:48.683Z,25.37
2018-12-05T09:22:15.402Z,30.83
2018-12-05T09:24:42.132Z,25.57
2018-12-05T09:27:08.886Z,32.30
2018-12-05T09:29:35.622Z,27.10
2018-12-05T09:32:02.349Z,21.47
2018-12-05T09:34:29.099Z,32.00
2018-12-05T09:36:56.524Z,31.43
2018-12-05T09:39:23.362Z,31.37
2018-12-05T09:41:50.196Z,24.60
2018-12-05T09:44:17.041Z,24.93
2018-12-05T09:46:43.892Z,23.93
2018-12-05T09:49:10.660Z,20.47
2018-12-05T09:51:37.493Z,22.30
2018-12-05T09:54:04.328Z,26.33
2018-12-05T09:56:31.117Z,29.03
2018-12-05T09:58:57.983Z,29.87
2018-12-05T10:01:24.842Z,27.83
2018-12-05T10:03:51.613Z,22.00
2018-12-05T10:06:18.335Z,22.83
2018-12-05T10:08:45.179Z,26.57
2018-12-05T10:11:17.073Z,30.63
2018-12-05T10:13:43.763Z,37.07
2018-12-05T10:16:10.473Z,42.83
2018-12-05T10:18:37.355Z,31.20
2018-12-05T10:21:04.118Z,38.13
2018-12-05T10:23:30.934Z,40.03
2018-12-05T10:25:57.695Z,46.33
2018-12-05T10:28:24.675Z,39.23
2018-12-05T10:30:51.390Z,45.00
2018-12-05T10:33:18.275Z,34.90
2018-12-05T10:35:45.351Z,40.70
2018-12-05T10:38:12.081Z,28.90
2018-12-05T10:40:38.845Z,64.27
2018-12-05T10:43:05.590Z,50.57
2018-12-05T10:45:32.329Z,63.40
2018-12-05T10:47:59.081Z,40.83
2018-12-05T10:50:26.521Z,35.60
2018-12-05T10:52:53.315Z,26.57
2018-12-05T10:55:20.110Z,31.13
2018-12-05T10:57:46.815Z,31.10
2018-12-05T11:00:15.632Z,64.63
2018-12-05T11:02:48.233Z,38.93
2018-12-05T11:05:20.721Z,33.40
2018-12-05T11:07:53.277Z,39.43
2018-12-05T11:10:25.664Z,39.47
2018-12-05T11:12:58.081Z,26.90
2018-12-05T11:15:30.536Z,47.03
2018-12-05T11:18:03.136Z,35.03
2018-12-05T11:20:35.814Z,33.20
2018-12-05T11:23:08.286Z,32.67
2018-12-05T11:25:35.166Z,22.83
2018-12-05T11:28:01.876Z,22.43
2018-12-05T11:30:28.772Z,25.60
2018-12-05T11:32:55.646Z,20.20
2018-12-05T11:35:22.376Z,27.67
2018-12-05T11:37:49.251Z,23.43
2018-12-05T11:40:17.431Z,26.43
2018-12-05T11:42:44.221Z,32.60
2018-12-05T11:45:10.991Z,30.73
2018-12-05T11:47:37.873Z,28.67
2018-12-05T11:50:05.187Z,27.17
2018-12-05T11:52:32.429Z,28.50
2018-12-05T11:55:00.085Z,32.83
2018-12-05T11:57:26.915Z,34.23
2018-12-05T11:59:53.687Z,35.80
2018-12-05T12:02:22.418Z,37.67
2018-12-05T12:04:49.200Z,32.93
2018-12-05T12:07:16.203Z,35.67
2018-12-05T12:09:42.910Z,32.07
2018-12-05T12:12:11.608Z,39.10
2018-12-05T12:14:38.404Z,39.07
2018-12-05T12:17:05.233Z,40.13
2018-12-05T12:19:31.932Z,36.17
2018-12-05T12:22:03.029Z,41.27
2018-12-05T12:24:34.902Z,59.37
2018-12-05T12:26:58.487Z,55.77
2018-12-05T12:29:25.266Z,46.00
2018-12-05T12:31:52.221Z,29.57
2018-12-05T12:34:19.022Z,39.93
2018-12-05T12:36:45.794Z,36.90
2018-12-05T12:39:12.538Z,39.87
2018-12-05T12:41:39.248Z,28.90
2018-12-05T12:44:06.122Z,31.17
2018-12-05T12:46:32.877Z,28.90
2018-12-05T12:48:59.586Z,40.17
2018-12-05T12:51:26.493Z,30.33
2018-12-05T12:53:53.343Z,44.53
2018-12-05T12:56:20.073Z,42.03
2018-12-05T12:58:46.817Z,32.03
2018-12-05T13:01:13.638Z,37.17
2018-12-05T13:03:40.343Z,37.63
2018-12-05T13:06:07.099Z,34.40
2018-12-05T13:08:33.829Z,45.73
2018-12-05T13:11:00.548Z,69.13
2018-12-05T13:13:27.298Z,48.73
2018-12-05T13:15:54.019Z,57.07
2018-12-05T13:18:20.742Z,43.87
2018-12-05T13:20:47.542Z,84.47
2018-12-05T13:23:14.275Z,163.43
2018-12-05T13:25:41.082Z,119.37
2018-12-05T13:28:08.067Z,56.47
2018-12-05T13:30:35.050Z,32.40
2018-12-05T13:33:01.783Z,23.43
2018-12-05T13:35:28.543Z,27.97
2018-12-05T13:37:55.256Z,21.97
2018-12-05T13:40:22.112Z,64.50
2018-12-05T13:42:48.935Z,44.47
2018-12-05T13:45:15.644Z,19.60
2018-12-05T13:47:42.346Z,20.43
2018-12-05T13:50:09.211Z,32.10
2018-12-05T13:52:35.916Z,39.87
2018-12-05T13:55:02.733Z,37.20
2018-12-05T13:57:29.483Z,35.30
2018-12-05T13:59:56.232Z,48.40
2018-12-05T14:02:23.059Z,51.40
2018-12-05T14:04:50.000Z,57.57
2018-12-05T14:07:16.840Z,51.83
2018-12-05T14:09:43.743Z,41.00
2018-12-05T14:12:12.589Z,51.80
2018-12-05T14:14:39.327Z,49.70
2018-12-05T14:17:06.041Z,42.10
2018-12-05T14:19:32.794Z,40.67
2018-12-05T14:22:00.139Z,37.90
2018-12-05T14:24:26.851Z,46.87
2018-12-05T14:26:53.623Z,43.93
2018-12-05T14:29:20.358Z,48.00
2018-12-05T14:31:47.064Z,59.80
2018-12-05T14:34:13.837Z,58.83
2018-12-05T14:36:40.573Z,76.20
2018-12-05T14:39:07.449Z,87.50
2018-12-05T14:41:34.195Z,101.93
2018-12-05T14:44:01.045Z,112.40
2018-12-05T14:46:27.985Z,122.53
2018-12-05T14:48:54.827Z,115.30
2018-12-05T14:51:21.645Z,107.00
2018-12-05T14:53:48.359Z,95.03
2018-12-05T14:56:15.117Z,136.70
2018-12-05T14:58:41.848Z,166.93
2018-12-05T15:01:08.559Z,129.87
2018-12-05T15:03:35.332Z,92.53
2018-12-05T15:06:02.041Z,86.73
2018-12-05T15:08:29.388Z,79.03
2018-12-05T15:10:56.171Z,79.97
2018-12-05T15:13:22.903Z,73.63
2018-12-05T15:15:49.683Z,83.00
2018-12-05T15:18:16.444Z,69.27
2018-12-05T15:20:43.371Z,74.07
2018-12-05T15:23:10.112Z,83.47
2018-12-05T15:25:36.858Z,83.33
2018-12-05T15:28:03.570Z,84.53
2018-12-05T15:30:30.424Z,122.97
2018-12-05T15:32:57.291Z,475.57
2018-12-05T15:35:24.018Z,395.53
2018-12-05T15:37:50.759Z,545.87
2018-12-05T15:40:17.516Z,550.10
2018-12-05T15:42:44.245Z,452.40
2018-12-05T15:45:10.971Z,319.70
2018-12-05T15:47:37.768Z,276.60
2018-12-05T15:50:05.086Z,238.47
2018-12-05T15:52:31.922Z,241.27
2018-12-05T15:54:58.681Z,221.47
2018-12-05T15:57:25.512Z,209.93
2018-12-05T15:59:52.573Z,207.13
2018-12-05T16:02:19.379Z,204.00
2018-12-05T16:04:46.238Z,171.77
2018-12-05T16:07:13.049Z,180.33
2018-12-05T16:09:39.819Z,202.27
2018-12-05T16:12:06.535Z,204.80
2018-12-05T16:14:33.246Z,194.87
2018-12-05T16:17:00.055Z,203.13
2018-12-05T16:19:26.767Z,214.50
2018-12-05T16:21:53.943Z,238.17
2018-12-05T16:24:20.806Z,235.97
2018-12-05T16:26:47.532Z,269.50
2018-12-05T16:29:14.262Z,246.07
2018-12-05T16:31:41.039Z,225.90
2018-12-05T16:34:07.778Z,246.53
2018-12-05T16:36:35.446Z,286.03
2018-12-05T16:39:02.376Z,269.73
2018-12-05T16:41:29.805Z,251.63
2018-12-05T16:43:56.522Z,259.30
2018-12-05T16:46:23.285Z,252.00
2018-12-05T16:48:50.057Z,498.00
2018-12-05T16:51:16.778Z,704.03
2018-12-05T16:53:43.572Z,1319.47
2018-12-05T16:56:10.309Z,851.87
2018-12-05T16:58:37.438Z,764.40
2018-12-05T17:01:04.286Z,665.83
2018-12-05T17:03:31.018Z,604.20
2018-12-05T17:05:58.216Z,580.40
2018-12-05T17:08:24.978Z,602.77
2018-12-05T17:10:51.839Z,624.10
2018-12-05T17:13:18.652Z,621.30
2018-12-05T17:15:45.475Z,626.33
2018-12-05T17:18:12.194Z,604.07
2018-12-05T17:20:38.909Z,572.80
2018-12-05T17:23:05.668Z,588.47
2018-12-05T17:25:32.395Z,641.20
2018-12-05T17:27:59.525Z,572.10
2018-12-05T17:30:26.298Z,498.37
2018-12-05T17:32:53.107Z,488.07
2018-12-05T17:35:19.938Z,470.60
2018-12-05T17:37:46.711Z,450.63
2018-12-05T17:40:13.432Z,426.83
2018-12-05T17:42:40.152Z,391.03
2018-12-05T17:45:06.979Z,341.57
2018-12-05T17:47:33.756Z,364.37
2018-12-05T17:50:00.829Z,326.83
2018-12-05T17:52:27.583Z,309.80
2018-12-05T17:54:54.457Z,320.47
2018-12-05T17:57:21.171Z,344.00
2018-12-05T17:59:47.970Z,351.53
2018-12-05T18:02:14.819Z,368.57
2018-12-05T18:04:41.539Z,379.03
2018-12-05T18:07:08.306Z,402.23
2018-12-05T18:09:35.139Z,421.60
2018-12-05T18:12:02.099Z,420.97
2018-12-05T18:14:28.936Z,433.23
2018-12-05T18:16:55.681Z,424.63
2018-12-05T18:19:22.399Z,423.90
2018-12-05T18:21:49.827Z,443.57
2018-12-05T18:24:16.610Z,471.27
2018-12-05T18:26:43.457Z,473.27
2018-12-05T18:29:10.296Z,449.40
2018-12-05T18:31:37.012Z,457.13
2018-12-05T18:34:04.106Z,443.33
2018-12-05T18:36:30.869Z,443.43
2018-12-05T18:38:57.586Z,429.57
2018-12-05T18:41:24.301Z,416.37
2018-12-05T18:43:51.253Z,433.63
2018-12-05T18:46:17.995Z,456.13
2018-12-05T18:48:44.845Z,447.63
2018-12-05T18:51:11.615Z,453.47
2018-12-05T18:53:38.329Z,428.43
2018-12-05T18:56:05.183Z,416.63
2018-12-05T18:58:31.931Z,395.73
2018-12-05T19:00:58.668Z,432.97
2018-12-05T19:03:25.593Z,460.83
2018-12-05T19:05:52.363Z,463.60
2018-12-05T19:08:19.084Z,447.43
2018-12-05T19:10:45.819Z,465.03
2018-12-05T19:13:12.626Z,455.27
2018-12-05T19:15:39.336Z,502.20
2018-12-05T19:18:06.432Z,486.27
2018-12-05T19:20:33.274Z,485.13
2018-12-05T19:23:00.006Z,457.67
2018-12-05T19:25:26.728Z,468.03
2018-12-05T19:27:53.724Z,472.50
2018-12-05T19:30:20.478Z,473.83
2018-12-05T19:32:47.219Z,488.73
2018-12-05T19:35:14.068Z,562.43
2018-12-05T19:37:40.835Z,574.67
2018-12-05T19:40:07.589Z,611.07
2018-12-05T19:42:34.536Z,625.90
2018-12-05T19:45:01.423Z,616.67
2018-12-05T19:47:28.463Z,586.90
2018-12-05T19:49:55.411Z,570.57
2018-12-05T19:52:22.456Z,596.93
2018-12-05T19:54:49.264Z,615.60
2018-12-05T19:57:16.577Z,623.80
2018-12-05T19:59:43.613Z,614.43
2018-12-05T20:02:10.492Z,623.57
2018-12-05T20:04:37.540Z,617.17
2018-12-05T20:07:04.294Z,600.43
2018-12-05T20:09:31.058Z,623.27
2018-12-05T20:11:57.855Z,642.77
2018-12-05T20:14:28.871Z,618.23
2018-12-05T20:16:55.698Z,602.37
2018-12-05T20:19:22.661Z,611.27
2018-12-05T20:21:49.440Z,627.30
2018-12-05T20:24:16.201Z,640.10
2018-12-05T20:26:43.030Z,623.60
2018-12-05T20:29:09.795Z,629.90
2018-12-05T20:31:36.678Z,632.97
2018-12-05T20:34:03.523Z,658.47
2018-12-05T20:36:30.460Z,666.43
2018-12-05T20:38:57.215Z,664.93
2018-12-05T20:41:31.282Z,630.87
2018-12-05T20:43:53.130Z,612.80
2018-12-05T20:46:19.920Z,640.63
2018-12-05T20:48:46.841Z,634.17
2018-12-05T20:51:13.906Z,633.03
2018-12-05T20:53:40.673Z,608.50
2018-12-05T20:56:07.484Z,629.20
2018-12-05T20:58:34.537Z,601.00
2018-12-05T21:01:01.505Z,585.27
2018-12-05T21:03:28.422Z,579.40
2018-12-05T21:05:55.259Z,564.03
2018-12-05T21:08:22.092Z,554.83
2018-12-05T21:10:48.959Z,538.20
2018-12-05T21:13:16.045Z,550.67
2018-12-05T21:15:42.975Z,549.77
2018-12-05T21:18:10.311Z,543.17
2018-12-05T21:20:37.129Z,501.10
2018-12-05T21:23:03.954Z,534.13
2018-12-05T21:25:30.819Z,513.07
2018-12-05T21:27:57.873Z,466.00
2018-12-05T21:30:24.792Z,422.90
2018-12-05T21:32:51.641Z,443.37
2018-12-05T21:35:18.584Z,419.80
2018-12-05T21:37:45.439Z,432.07
2018-12-05T21:40:12.277Z,423.13
2018-12-05T21:42:39.040Z,421.90
2018-12-05T21:45:06.056Z,418.10
2018-12-05T21:47:33.010Z,407.37
2018-12-05T21:49:59.859Z,425.73
2018-12-05T21:52:26.624Z,429.47
2018-12-05T21:54:53.555Z,444.17
2018-12-05T21:57:20.408Z,479.60
2018-12-05T21:59:47.239Z,465.50
2018-12-05T22:02:14.263Z,467.80
2018-12-05T22:04:41.125Z,479.43
2018-12-05T22:07:08.073Z,496.13
2018-12-05T22:09:34.999Z,559.97
2018-12-05T22:12:01.953Z,612.43
2018-12-05T22:14:28.711Z,597.00
2018-12-05T22:16:55.634Z,532.93
2018-12-05T22:19:22.574Z,507.17
2018-12-05T22:21:49.335Z,474.83
2018-12-05T22:24:16.184Z,477.30
2018-12-05T22:26:42.945Z,464.23
2018-12-05T22:29:09.869Z,447.77
2018-12-05T22:31:36.795Z,445.50
2018-12-05T22:34:03.657Z,454.67
2018-12-05T22:36:30.498Z,450.97
2018-12-05T22:38:57.298Z,473.30
2018-12-05T22:41:24.102Z,481.00
2018-12-05T22:43:50.937Z,481.50
2018-12-05T22:46:17.865Z,461.53
2018-12-05T22:48:44.796Z,476.63
2018-12-05T22:51:11.660Z,476.90
2018-12-05T22:53:38.812Z,443.27
2018-12-05T22:56:05.565Z,450.87
2018-12-05T22:58:32.380Z,440.90
2018-12-05T23:00:59.236Z,439.70
2018-12-05T23:03:26.029Z,432.97
2018-12-05T23:05:52.903Z,442.87
2018-12-05T23:08:19.774Z,410.80
2018-12-05T23:10:46.562Z,429.70
2018-12-05T23:13:13.315Z,421.10
2018-12-05T23:15:40.306Z,431.97
2018-12-05T23:18:07.071Z,443.67
2018-12-05T23:20:33.827Z,446.20
2018-12-05T23:23:00.728Z,430.50
2018-12-05T23:25:27.472Z,426.47
2018-12-05T23:27:54.239Z,426.40
2018-12-05T23:30:21.043Z,412.37
2018-12-05T23:32:47.792Z,407.70
2018-12-05T23:35:14.537Z,401.00
2018-12-05T23:37:41.341Z,393.47
2018-12-05T23:40:08.094Z,411.67
2018-12-05T23:42:35.064Z,401.90
2018-12-05T23:45:01.878Z,388.50
2018-12-05T23:47:28.664Z,398.53
2018-12-05T23:49:55.419Z,381.40
2018-12-05T23:52:22.329Z,372.97
2018-12-05T23:54:49.176Z,369.13
2018-12-05T23:57:16.204Z,401.03
2018-12-05T23:59:42.998Z,399.80
